sensor_id;sensor_type;location;lat;lon;timestamp;temperature;humidity
38866;DHT22;62686;48.984;8.394;2024-02-21T00:47:23;7.70;99.90
38866;DHT22;62686;48.984;8.394;2024-02-21T00:49:54;7.80;99.90
38866;DHT22;62686;48.984;8.394;2024-02-21T00:52:23;7.80;99.90
38866;DHT22;62686;48.984;8.394;2024-02-21T00:54:51;7.80;99.90
38866;DHT22;62686;48.984;8.394;2024-02-21T00:57:20;7.90;99.90
38866;DHT22;62686;48.984;8.394;2024-02-21T00:59:51;7.80;99.90
38866;DHT22;62686;48.984;8.394;2024-02-21T01:02:20;7.80;99.90
38866;DHT22;62686;48.984;8.394;2024-02-21T01:04:50;7.80;99.90
38866;DHT22;62686;48.984;8.394;2024-02-21T01:07:18;7.80;99.90
38866;DHT22;62686;48.984;8.394;2024-02-21T01:09:46;7.80;99.90
38866;DHT22;62686;48.984;8.394;2024-02-21T01:12:15;7.60;99.90
38866;DHT22;62686;48.984;8.394;2024-02-21T01:14:43;7.50;99.90
38866;DHT22;62686;48.984;8.394;2024-02-21T01:17:13;7.40;99.90
38866;DHT22;62686;48.984;8.394;2024-02-21T01:19:41;7.30;99.90
38866;DHT22;62686;48.984;8.394;2024-02-21T01:22:11;7.10;99.90
38866;DHT22;62686;48.984;8.394;2024-02-21T01:24:39;7.10;99.90
38866;DHT22;62686;48.984;8.394;2024-02-21T01:27:08;7.00;99.90
38866;DHT22;62686;48.984;8.394;2024-02-21T01:29:38;6.90;99.90
38866;DHT22;62686;48.984;8.394;2024-02-21T01:32:06;6.90;99.90
38866;DHT22;62686;48.984;8.394;2024-02-21T01:34:35;6.90;99.90
38866;DHT22;62686;48.984;8.394;2024-02-21T01:37:04;6.90;99.90
38866;DHT22;62686;48.984;8.394;2024-02-21T01:39:35;6.80;99.90
38866;DHT22;62686;48.984;8.394;2024-02-21T01:42:04;6.80;99.90
38866;DHT22;62686;48.984;8.394;2024-02-21T01:44:32;6.80;99.90
38866;DHT22;62686;48.984;8.394;2024-02-21T01:47:01;6.80;99.90
38866;DHT22;62686;48.984;8.394;2024-02-21T01:49:30;6.70;99.90
38866;DHT22;62686;48.984;8.394;2024-02-21T01:51:58;6.70;99.90
38866;DHT22;62686;48.984;8.394;2024-02-21T01:54:27;6.70;99.90
38866;DHT22;62686;48.984;8.394;2024-02-21T01:56:58;6.70;99.90
38866;DHT22;62686;48.984;8.394;2024-02-21T07:48:27;6.20;99.90
38866;DHT22;62686;48.984;8.394;2024-02-21T07:50:57;6.40;99.90
38866;DHT22;62686;48.984;8.394;2024-02-21T07:53:25;6.50;99.90
38866;DHT22;62686;48.984;8.394;2024-02-21T07:55:54;6.60;99.90
38866;DHT22;62686;48.984;8.394;2024-02-21T07:58:22;6.80;99.90
38866;DHT22;62686;48.984;8.394;2024-02-21T08:00:51;7.00;99.90
38866;DHT22;62686;48.984;8.394;2024-02-21T08:03:19;7.20;99.90
38866;DHT22;62686;48.984;8.394;2024-02-21T08:05:49;7.30;99.90
38866;DHT22;62686;48.984;8.394;2024-02-21T08:08:18;7.50;99.90
38866;DHT22;62686;48.984;8.394;2024-02-21T08:10:49;7.70;99.90
38866;DHT22;62686;48.984;8.394;2024-02-21T08:13:17;7.90;99.90
38866;DHT22;62686;48.984;8.394;2024-02-21T08:15:46;8.10;99.90
38866;DHT22;62686;48.984;8.394;2024-02-21T08:18:14;8.20;99.90
38866;DHT22;62686;48.984;8.394;2024-02-21T08:20:42;8.40;99.90
38866;DHT22;62686;48.984;8.394;2024-02-21T08:23:15;8.60;99.90
38866;DHT22;62686;48.984;8.394;2024-02-21T08:25:44;8.60;99.90
38866;DHT22;62686;48.984;8.394;2024-02-21T08:28:14;8.60;99.90
38866;DHT22;62686;48.984;8.394;2024-02-21T08:30:42;8.70;99.90
38866;DHT22;62686;48.984;8.394;2024-02-21T08:33:15;8.70;99.90
38866;DHT22;62686;48.984;8.394;2024-02-21T08:35:44;8.80;99.90
38866;DHT22;62686;48.984;8.394;2024-02-21T08:38:14;8.80;99.90
38866;DHT22;62686;48.984;8.394;2024-02-21T08:40:42;8.90;99.90
38866;DHT22;62686;48.984;8.394;2024-02-21T08:43:11;9.10;99.90
38866;DHT22;62686;48.984;8.394;2024-02-21T08:45:39;9.20;99.90
38866;DHT22;62686;48.984;8.394;2024-02-21T08:48:07;9.30;99.90
38866;DHT22;62686;48.984;8.394;2024-02-21T08:50:36;9.30;99.90
38866;DHT22;62686;48.984;8.394;2024-02-21T08:53:05;9.40;99.90
38866;DHT22;62686;48.984;8.394;2024-02-21T08:55:35;9.50;99.90
38866;DHT22;62686;48.984;8.394;2024-02-21T10:08:23;12.30;99.90
38866;DHT22;62686;48.984;8.394;2024-02-21T10:10:51;12.40;99.90
38866;DHT22;62686;48.984;8.394;2024-02-21T10:13:25;12.40;99.90
38866;DHT22;62686;48.984;8.394;2024-02-21T10:16:02;12.40;99.90
38866;DHT22;62686;48.984;8.394;2024-02-21T10:18:31;12.50;99.90
38866;DHT22;62686;48.984;8.394;2024-02-21T10:21:01;12.30;99.90
38866;DHT22;62686;48.984;8.394;2024-02-21T10:23:42;12.20;99.90
38866;DHT22;62686;48.984;8.394;2024-02-21T10:26:12;12.20;99.90
38866;DHT22;62686;48.984;8.394;2024-02-21T10:28:40;12.10;99.90
38866;DHT22;62686;48.984;8.394;2024-02-21T10:31:20;12.20;99.90
38866;DHT22;62686;48.984;8.394;2024-02-21T10:33:54;12.30;99.90
38866;DHT22;62686;48.984;8.394;2024-02-21T10:36:24;12.50;99.90
38866;DHT22;62686;48.984;8.394;2024-02-21T10:38:54;12.50;99.90
38866;DHT22;62686;48.984;8.394;2024-02-21T10:41:23;12.70;99.90
38866;DHT22;62686;48.984;8.394;2024-02-21T10:43:54;12.50;99.90
38866;DHT22;62686;48.984;8.394;2024-02-21T10:46:24;12.50;99.90
38866;DHT22;62686;48.984;8.394;2024-02-21T10:49:01;12.60;99.90
38866;DHT22;62686;48.984;8.394;2024-02-21T10:51:34;12.60;99.90
38866;DHT22;62686;48.984;8.394;2024-02-21T10:54:18;12.90;99.90
38866;DHT22;62686;48.984;8.394;2024-02-21T10:56:55;13.20;99.90
38866;DHT22;62686;48.984;8.394;2024-02-21T10:59:25;12.90;99.90
38866;DHT22;62686;48.984;8.394;2024-02-21T11:01:56;13.20;99.90
38866;DHT22;62686;48.984;8.394;2024-02-21T11:04:25;13.20;99.90
38866;DHT22;62686;48.984;8.394;2024-02-21T11:06:54;13.30;99.90
38866;DHT22;62686;48.984;8.394;2024-02-21T11:09:31;13.20;99.90
38866;DHT22;62686;48.984;8.394;2024-02-21T11:12:02;13.50;99.90
38866;DHT22;62686;48.984;8.394;2024-02-21T11:14:32;13.50;99.90
38866;DHT22;62686;48.984;8.394;2024-02-21T11:17:02;13.50;99.90
38866;DHT22;62686;48.984;8.394;2024-02-21T12:29:51;13.30;99.90
38866;DHT22;62686;48.984;8.394;2024-02-21T12:32:19;13.30;99.90
38866;DHT22;62686;48.984;8.394;2024-02-21T12:34:48;13.30;99.90
38866;DHT22;62686;48.984;8.394;2024-02-21T12:37:18;13.30;99.90
38866;DHT22;62686;48.984;8.394;2024-02-21T12:39:47;13.40;99.90
38866;DHT22;62686;48.984;8.394;2024-02-21T12:42:15;13.70;99.90
38866;DHT22;62686;48.984;8.394;2024-02-21T12:44:44;13.80;99.90
38866;DHT22;62686;48.984;8.394;2024-02-21T12:47:14;13.80;99.90
38866;DHT22;62686;48.984;8.394;2024-02-21T12:49:42;13.60;99.90
38866;DHT22;62686;48.984;8.394;2024-02-21T12:52:11;13.60;99.90
38866;DHT22;62686;48.984;8.394;2024-02-21T12:54:40;13.20;99.90
38866;DHT22;62686;48.984;8.394;2024-02-21T12:57:09;13.30;99.90
38866;DHT22;62686;48.984;8.394;2024-02-21T12:59:38;13.50;99.90
38866;DHT22;62686;48.984;8.394;2024-02-21T13:02:07;13.50;99.90
38866;DHT22;62686;48.984;8.394;2024-02-21T13:04:37;13.60;99.90
38866;DHT22;62686;48.984;8.394;2024-02-21T13:07:07;13.70;99.90
38866;DHT22;62686;48.984;8.394;2024-02-21T13:09:35;13.60;99.90
38866;DHT22;62686;48.984;8.394;2024-02-21T13:12:04;13.60;99.90
38866;DHT22;62686;48.984;8.394;2024-02-21T13:14:34;13.50;99.90
38866;DHT22;62686;48.984;8.394;2024-02-21T13:17:05;13.30;99.90
38866;DHT22;62686;48.984;8.394;2024-02-21T13:19:34;12.80;99.90
38866;DHT22;62686;48.984;8.394;2024-02-21T13:22:03;12.90;99.90
38866;DHT22;62686;48.984;8.394;2024-02-21T13:24:31;13.10;99.90
38866;DHT22;62686;48.984;8.394;2024-02-21T13:27:00;13.20;99.90
38866;DHT22;62686;48.984;8.394;2024-02-21T13:29:28;13.30;99.90
38866;DHT22;62686;48.984;8.394;2024-02-21T13:31:57;13.30;99.90
38866;DHT22;62686;48.984;8.394;2024-02-21T13:34:26;13.20;99.90
38866;DHT22;62686;48.984;8.394;2024-02-21T13:36:55;13.20;99.90
38866;DHT22;62686;48.984;8.394;2024-02-21T14:48:27;13.20;99.90
38866;DHT22;62686;48.984;8.394;2024-02-21T14:51:08;13.20;99.90
38866;DHT22;62686;48.984;8.394;2024-02-21T14:53:43;13.20;99.90
38866;DHT22;62686;48.984;8.394;2024-02-21T14:56:36;13.20;99.90
38866;DHT22;62686;48.984;8.394;2024-02-21T14:59:14;13.20;99.90
38866;DHT22;62686;48.984;8.394;2024-02-21T15:02:08;13.20;99.90
38866;DHT22;62686;48.984;8.394;2024-02-21T15:04:49;12.90;99.90
38866;DHT22;62686;48.984;8.394;2024-02-21T15:07:28;12.90;99.90
38866;DHT22;62686;48.984;8.394;2024-02-21T15:10:00;12.80;99.90
38866;DHT22;62686;48.984;8.394;2024-02-21T15:12:30;12.60;99.90
38866;DHT22;62686;48.984;8.394;2024-02-21T15:15:23;12.60;99.90
38866;DHT22;62686;48.984;8.394;2024-02-21T15:17:57;12.50;99.90
38866;DHT22;62686;48.984;8.394;2024-02-21T15:21:12;12.40;99.90
38866;DHT22;62686;48.984;8.394;2024-02-21T15:24:05;12.40;99.90
38866;DHT22;62686;48.984;8.394;2024-02-21T15:27:10;12.40;99.90
38866;DHT22;62686;48.984;8.394;2024-02-21T15:30:06;12.30;99.90
38866;DHT22;62686;48.984;8.394;2024-02-21T15:32:55;12.40;99.90
38866;DHT22;62686;48.984;8.394;2024-02-21T15:59:03;11.80;99.90
38866;DHT22;62686;48.984;8.394;2024-02-21T16:01:31;11.60;99.90
38866;DHT22;62686;48.984;8.394;2024-02-21T16:04:02;11.50;99.90
38866;DHT22;62686;48.984;8.394;2024-02-21T16:06:32;11.30;99.90
38866;DHT22;62686;48.984;8.394;2024-02-21T16:09:01;11.30;99.90
38866;DHT22;62686;48.984;8.394;2024-02-21T16:11:32;11.20;99.90
38866;DHT22;62686;48.984;8.394;2024-02-21T16:14:02;11.10;99.90
38866;DHT22;62686;48.984;8.394;2024-02-21T16:16:30;11.10;99.90
38866;DHT22;62686;48.984;8.394;2024-02-21T16:18:59;11.10;99.90
38866;DHT22;62686;48.984;8.394;2024-02-21T16:21:29;11.00;99.90
38866;DHT22;62686;48.984;8.394;2024-02-21T16:23:57;11.00;99.90
38866;DHT22;62686;48.984;8.394;2024-02-21T16:26:26;11.00;99.90
38866;DHT22;62686;48.984;8.394;2024-02-21T16:28:54;10.90;99.90
38866;DHT22;62686;48.984;8.394;2024-02-21T16:31:24;10.80;99.90
38866;DHT22;62686;48.984;8.394;2024-02-21T16:33:53;10.70;99.90
38866;DHT22;62686;48.984;8.394;2024-02-21T16:36:21;10.60;99.90
38866;DHT22;62686;48.984;8.394;2024-02-21T16:38:51;10.50;99.90
38866;DHT22;62686;48.984;8.394;2024-02-21T16:41:22;10.40;99.90
38866;DHT22;62686;48.984;8.394;2024-02-21T16:43:51;10.30;99.90
38866;DHT22;62686;48.984;8.394;2024-02-21T16:46:20;10.30;99.90
38866;DHT22;62686;48.984;8.394;2024-02-21T16:48:51;10.20;99.90
38866;DHT22;62686;48.984;8.394;2024-02-21T16:51:21;10.10;99.90
38866;DHT22;62686;48.984;8.394;2024-02-21T16:53:50;10.10;99.90
38866;DHT22;62686;48.984;8.394;2024-02-21T16:56:19;10.10;99.90
38866;DHT22;62686;48.984;8.394;2024-02-21T16:58:48;10.00;99.90
38866;DHT22;62686;48.984;8.394;2024-02-21T17:01:18;9.90;99.90
38866;DHT22;62686;48.984;8.394;2024-02-21T17:03:48;9.90;99.90
38866;DHT22;62686;48.984;8.394;2024-02-21T17:06:19;9.80;99.90
38866;DHT22;62686;48.984;8.394;2024-02-21T18:04:35;9.00;99.90
38866;DHT22;62686;48.984;8.394;2024-02-21T18:17:45;8.70;99.90
38866;DHT22;62686;48.984;8.394;2024-02-21T18:20:24;8.70;99.90
38866;DHT22;62686;48.984;8.394;2024-02-21T18:22:52;8.60;99.90
38866;DHT22;62686;48.984;8.394;2024-02-21T18:25:21;8.60;99.90
38866;DHT22;62686;48.984;8.394;2024-02-21T18:27:52;8.60;99.90
38866;DHT22;62686;48.984;8.394;2024-02-21T18:30:21;8.60;99.90
38866;DHT22;62686;48.984;8.394;2024-02-21T18:32:50;8.60;99.90
38866;DHT22;62686;48.984;8.394;2024-02-21T18:35:19;8.70;99.90
38866;DHT22;62686;48.984;8.394;2024-02-21T18:37:48;8.70;99.90
38866;DHT22;62686;48.984;8.394;2024-02-21T18:40:17;8.70;99.90
38866;DHT22;62686;48.984;8.394;2024-02-21T18:42:46;8.70;99.90
38866;DHT22;62686;48.984;8.394;2024-02-21T18:45:15;8.70;99.90
38866;DHT22;62686;48.984;8.394;2024-02-21T18:47:43;8.70;99.90
38866;DHT22;62686;48.984;8.394;2024-02-21T18:50:12;8.80;99.90
38866;DHT22;62686;48.984;8.394;2024-02-21T18:52:41;8.80;99.90
38866;DHT22;62686;48.984;8.394;2024-02-21T18:55:14;8.80;99.90
38866;DHT22;62686;48.984;8.394;2024-02-21T18:57:43;8.80;99.90
38866;DHT22;62686;48.984;8.394;2024-02-21T19:00:12;8.70;99.90
38866;DHT22;62686;48.984;8.394;2024-02-21T19:02:43;8.70;99.90
38866;DHT22;62686;48.984;8.394;2024-02-21T19:05:14;8.70;99.90
38866;DHT22;62686;48.984;8.394;2024-02-21T19:07:42;8.70;99.90
38866;DHT22;62686;48.984;8.394;2024-02-21T19:10:12;8.70;99.90
38866;DHT22;62686;48.984;8.394;2024-02-21T19:12:41;8.70;99.90
38866;DHT22;62686;48.984;8.394;2024-02-21T19:15:10;8.70;99.90
38866;DHT22;62686;48.984;8.394;2024-02-21T19:17:39;8.70;99.90
38866;DHT22;62686;48.984;8.394;2024-02-21T19:20:08;8.70;99.90
38866;DHT22;62686;48.984;8.394;2024-02-21T19:22:38;8.70;99.90
38866;DHT22;62686;48.984;8.394;2024-02-21T19:25:08;8.60;99.90
38866;DHT22;62686;48.984;8.394;2024-02-21T19:27:41;8.70;99.90
38866;DHT22;62686;48.984;8.394;2024-02-21T19:30:10;8.70;99.90
38866;DHT22;62686;48.984;8.394;2024-02-21T19:32:39;8.70;99.90
38866;DHT22;62686;48.984;8.394;2024-02-21T19:35:08;8.70;99.90
38866;DHT22;62686;48.984;8.394;2024-02-21T19:37:38;8.70;99.90
38866;DHT22;62686;48.984;8.394;2024-02-21T19:40:08;8.70;99.90
38866;DHT22;62686;48.984;8.394;2024-02-21T19:42:38;8.70;99.90
38866;DHT22;62686;48.984;8.394;2024-02-21T19:45:09;8.60;99.90
38866;DHT22;62686;48.984;8.394;2024-02-21T19:47:38;8.60;99.90
38866;DHT22;62686;48.984;8.394;2024-02-21T19:50:09;8.60;99.90
38866;DHT22;62686;48.984;8.394;2024-02-21T19:52:41;8.60;99.90
38866;DHT22;62686;48.984;8.394;2024-02-21T19:55:10;8.60;99.90
38866;DHT22;62686;48.984;8.394;2024-02-21T19:57:38;8.60;99.90
38866;DHT22;62686;48.984;8.394;2024-02-21T20:00:10;8.60;99.90
38866;DHT22;62686;48.984;8.394;2024-02-21T20:02:39;8.70;99.90
38866;DHT22;62686;48.984;8.394;2024-02-21T20:05:09;8.70;99.90
38866;DHT22;62686;48.984;8.394;2024-02-21T20:07:38;8.70;99.90
38866;DHT22;62686;48.984;8.394;2024-02-21T20:10:07;8.80;99.90
38866;DHT22;62686;48.984;8.394;2024-02-21T20:12:36;8.80;99.90
38866;DHT22;62686;48.984;8.394;2024-02-21T20:15:06;8.90;99.90
38866;DHT22;62686;48.984;8.394;2024-02-21T20:17:37;8.90;99.90
38866;DHT22;62686;48.984;8.394;2024-02-21T20:20:10;9.00;99.90
38866;DHT22;62686;48.984;8.394;2024-02-21T20:22:39;9.00;99.90
38866;DHT22;62686;48.984;8.394;2024-02-21T20:25:09;9.30;99.90
38866;DHT22;62686;48.984;8.394;2024-02-21T20:27:38;9.50;99.90
38866;DHT22;62686;48.984;8.394;2024-02-21T20:30:08;9.70;99.90
38866;DHT22;62686;48.984;8.394;2024-02-21T20:32:37;9.80;99.90
38866;DHT22;62686;48.984;8.394;2024-02-21T20:35:06;10.00;99.90
38866;DHT22;62686;48.984;8.394;2024-02-21T21:49:21;10.10;99.90
38866;DHT22;62686;48.984;8.394;2024-02-21T21:51:50;9.80;99.90
38866;DHT22;62686;48.984;8.394;2024-02-21T21:54:19;9.60;99.90
38866;DHT22;62686;48.984;8.394;2024-02-21T21:56:47;9.60;99.90
38866;DHT22;62686;48.984;8.394;2024-02-21T21:59:17;9.50;99.90
38866;DHT22;62686;48.984;8.394;2024-02-21T22:01:45;9.40;99.90
38866;DHT22;62686;48.984;8.394;2024-02-21T22:04:14;9.20;99.90
38866;DHT22;62686;48.984;8.394;2024-02-21T22:06:43;9.00;99.90
38866;DHT22;62686;48.984;8.394;2024-02-21T22:09:12;8.90;99.90
38866;DHT22;62686;48.984;8.394;2024-02-21T22:11:41;8.80;99.90
38866;DHT22;62686;48.984;8.394;2024-02-21T22:14:09;8.70;99.90
38866;DHT22;62686;48.984;8.394;2024-02-21T22:16:38;8.60;99.90
38866;DHT22;62686;48.984;8.394;2024-02-21T22:19:06;8.60;99.90
38866;DHT22;62686;48.984;8.394;2024-02-21T22:21:35;8.50;99.90
38866;DHT22;62686;48.984;8.394;2024-02-21T22:24:05;8.50;99.90
38866;DHT22;62686;48.984;8.394;2024-02-21T22:26:34;8.50;99.90
38866;DHT22;62686;48.984;8.394;2024-02-21T22:29:02;8.50;99.90
38866;DHT22;62686;48.984;8.394;2024-02-21T22:31:31;8.60;99.90
38866;DHT22;62686;48.984;8.394;2024-02-21T22:33:59;8.60;99.90
38866;DHT22;62686;48.984;8.394;2024-02-21T22:36:28;8.60;99.90
38866;DHT22;62686;48.984;8.394;2024-02-21T22:38:56;8.60;99.90
38866;DHT22;62686;48.984;8.394;2024-02-21T22:41:26;8.60;99.90
38866;DHT22;62686;48.984;8.394;2024-02-21T22:43:55;8.60;99.90
38866;DHT22;62686;48.984;8.394;2024-02-21T22:46:23;8.50;99.90
38866;DHT22;62686;48.984;8.394;2024-02-21T22:48:51;8.60;99.90
38866;DHT22;62686;48.984;8.394;2024-02-21T22:51:20;8.50;99.90
38866;DHT22;62686;48.984;8.394;2024-02-21T22:53:48;8.60;99.90
38866;DHT22;62686;48.984;8.394;2024-02-21T22:56:17;8.70;99.90
38866;DHT22;62686;48.984;8.394;2024-02-21T22:58:46;8.60;99.90
38866;DHT22;62686;48.984;8.394;2024-02-21T23:01:15;8.60;99.90
38866;DHT22;62686;48.984;8.394;2024-02-21T23:03:44;8.70;99.90
38866;DHT22;62686;48.984;8.394;2024-02-21T23:06:13;8.70;99.90
38866;DHT22;62686;48.984;8.394;2024-02-21T23:08:42;8.70;99.90
38866;DHT22;62686;48.984;8.394;2024-02-21T23:11:10;8.80;99.90
38866;DHT22;62686;48.984;8.394;2024-02-21T23:13:39;8.80;99.90
38866;DHT22;62686;48.984;8.394;2024-02-21T23:16:09;8.70;99.90
38866;DHT22;62686;48.984;8.394;2024-02-21T23:18:37;8.70;99.90
38866;DHT22;62686;48.984;8.394;2024-02-21T23:21:09;8.80;99.90
38866;DHT22;62686;48.984;8.394;2024-02-21T23:23:39;8.80;99.90
38866;DHT22;62686;48.984;8.394;2024-02-21T23:26:07;8.90;99.90
38866;DHT22;62686;48.984;8.394;2024-02-21T23:28:41;8.90;99.90
38866;DHT22;62686;48.984;8.394;2024-02-21T23:31:12;8.80;99.90
38866;DHT22;62686;48.984;8.394;2024-02-21T23:33:41;8.80;99.90
38866;DHT22;62686;48.984;8.394;2024-02-21T23:36:09;8.90;99.90
38866;DHT22;62686;48.984;8.394;2024-02-21T23:38:39;8.80;99.90
38866;DHT22;62686;48.984;8.394;2024-02-21T23:41:07;8.90;99.90
38866;DHT22;62686;48.984;8.394;2024-02-21T23:43:40;9.00;99.90
38866;DHT22;62686;48.984;8.394;2024-02-21T23:46:09;8.90;99.90
38866;DHT22;62686;48.984;8.394;2024-02-21T23:48:40;8.90;99.90
38866;DHT22;62686;48.984;8.394;2024-02-21T23:51:08;8.90;99.90
38866;DHT22;62686;48.984;8.394;2024-02-21T23:53:42;8.90;99.90
38866;DHT22;62686;48.984;8.394;2024-02-21T23:56:11;8.90;99.90
38866;DHT22;62686;48.984;8.394;2024-02-21T23:58:40;8.80;99.90
